This is the latest recevied weather packets stored in our database for station/object AB8XS. If no packets are shown the sender has not sent any weather packets the latest 10 day(s).
| Time | Temp. | Humidity | Pressure | Rain* | Wind** | Luminosity | Snow |
|---|---|---|---|---|---|---|---|
| 1777272628 | 12.22° C | 61% | 1016.9 hPa | 0 mm | - | 0 W/m² | - |
| 1777268128 | 13.89° C | 61% | 1017.1 hPa | 0 mm | - | 0 W/m² | - |
| 1777267828 | 13.89° C | 60% | 1017.1 hPa | 0 mm | - | 0 W/m² | - |
| 1777262428 | 15.56° C | 67% | 1016.7 hPa | 0 mm | - | 0 W/m² | - |
| 1777259128 | 16.11° C | 63% | 1016.7 hPa | 0 mm | - | 0 W/m² | - |
| 1777257028 | 16.11° C | 62% | 1016.7 hPa | 0 mm | - | 0 W/m² | - |
| 1777256128 | 16.11° C | 62% | 1016.6 hPa | 0 mm | - | 0 W/m² | - |
| 1777255828 | 16.67° C | 62% | 1016.6 hPa | 0 mm | - | 0 W/m² | - |
| 1777254928 | 16.67° C | 61% | 1016.6 hPa | 0 mm | - | 0 W/m² | - |
| 1777253128 | 17.22° C | 59% | 1016.3 hPa | 0 mm | - | 0 W/m² | - |
| 1777251328 | 18.33° C | 56% | 1016.1 hPa | 0 mm | - | 0 W/m² | - |
| 1777250728 | 18.89° C | 55% | 1016.1 hPa | 0 mm | - | 0 W/m² | - |
| 1777249873 | 18.89° C | 54% | 1016.3 hPa | 0 mm | - | 0 W/m² | - |
| 1777247428 | 19.44° C | 52% | 1016 hPa | 0 mm | - | 19 W/m² | - |
| 1777245328 | 19.44° C | 52% | 1015.9 hPa | 0 mm | - | 38 W/m² | - |
| 1777242328 | 17.22° C | 59% | 1015.9 hPa | 0 mm | - | 55 W/m² | - |
| 1777240858 | 16.67° C | 64% | 1016.2 hPa | 0 mm | - | 182 W/m² | - |
| 1777239628 | 17.22° C | 63% | 1016.4 hPa | 0 mm | - | 119 W/m² | - |
| 1777239028 | 17.78° C | 62% | 1016.5 hPa | 0 mm | - | 137 W/m² | - |
| 1777238428 | 18.33° C | 58% | 1016.6 hPa | 0 mm | - | 307 W/m² | - |
| 1777235173 | 20° C | 52% | 1017.2 hPa | 0 mm | - | 531 W/m² | - |
* Rain latest hour (hover to see other rain measurements)
** Current wind speed in m/s (hover to see current wind gust speed)